createdAt,value
2022-08-10T00:01:53.335Z,100.00
2022-08-10T00:04:23.877Z,100.00
2022-08-10T00:06:54.030Z,100.00
2022-08-10T00:09:24.981Z,100.00
2022-08-10T00:11:53.419Z,100.00
2022-08-10T00:14:22.099Z,100.00
2022-08-10T00:16:50.802Z,100.00
2022-08-10T00:19:19.018Z,100.00
2022-08-10T00:21:48.028Z,100.00
2022-08-10T00:24:16.753Z,100.00
2022-08-10T00:27:52.497Z,100.00
2022-08-10T00:29:34.378Z,100.00
2022-08-10T00:32:02.755Z,100.00
2022-08-10T00:34:32.958Z,100.00
2022-08-10T00:37:01.582Z,100.00
2022-08-10T00:39:30.471Z,100.00
2022-08-10T00:42:10.828Z,100.00
2022-08-10T00:44:53.765Z,100.00
2022-08-10T00:47:35.855Z,100.00
2022-08-10T00:50:10.667Z,100.00
2022-08-10T00:52:40.396Z,100.00
2022-08-10T00:55:08.792Z,100.00
2022-08-10T00:57:39.091Z,100.00
2022-08-10T01:00:11.649Z,100.00
2022-08-10T01:02:40.848Z,100.00
2022-08-10T01:05:12.599Z,100.00
2022-08-10T01:07:56.403Z,100.00
2022-08-10T01:11:01.432Z,100.00
2022-08-10T01:13:49.339Z,100.00
2022-08-10T01:16:37.387Z,100.00
2022-08-10T01:19:41.064Z,100.00
2022-08-10T01:22:24.716Z,100.00
2022-08-10T01:25:18.778Z,100.00
2022-08-10T01:28:16.387Z,100.00
2022-08-10T01:30:47.383Z,100.00
2022-08-10T01:33:31.790Z,100.00
2022-08-10T01:36:20.161Z,100.00
2022-08-10T01:39:03.902Z,100.00
2022-08-10T01:41:40.902Z,100.00
2022-08-10T01:44:19.872Z,100.00
2022-08-10T01:46:56.945Z,100.00
2022-08-10T01:49:28.856Z,100.00
2022-08-10T01:52:00.912Z,100.00
2022-08-10T01:54:30.376Z,100.00
2022-08-10T01:56:59.972Z,100.00
2022-08-10T01:59:33.411Z,100.00
2022-08-10T02:02:09.690Z,100.00
2022-08-10T02:04:42.037Z,100.00
2022-08-10T02:07:14.821Z,100.00
2022-08-10T02:09:49.909Z,100.00
2022-08-10T02:12:26.704Z,100.00
2022-08-10T02:14:59.265Z,100.00
2022-08-10T02:18:00.353Z,100.00
2022-08-10T02:20:31.443Z,100.00
2022-08-10T02:23:09.958Z,100.00
2022-08-10T02:25:43.649Z,100.00
2022-08-10T02:28:29.902Z,100.00
2022-08-10T02:31:08.841Z,100.00
2022-08-10T02:33:56.385Z,100.00
2022-08-10T02:36:31.667Z,100.00
2022-08-10T02:39:04.643Z,100.00
2022-08-10T02:45:02.363Z,100.00
2022-08-10T02:45:14.819Z,100.00
2022-08-10T02:47:51.259Z,100.00
2022-08-10T02:50:32.531Z,100.00
2022-08-10T02:53:49.509Z,100.00
2022-08-10T02:56:28.838Z,100.00
2022-08-10T02:59:23.971Z,100.00
2022-08-10T03:01:58.091Z,100.00
2022-08-10T03:04:57.177Z,100.00
2022-08-10T03:07:43.320Z,100.00
2022-08-10T03:10:20.542Z,100.00
2022-08-10T03:13:02.462Z,100.00
2022-08-10T03:15:32.974Z,100.00
2022-08-10T03:18:02.915Z,100.00
2022-08-10T03:20:39.539Z,100.00
2022-08-10T03:23:14.067Z,100.00
2022-08-10T03:25:53.223Z,100.00
2022-08-10T03:28:27.217Z,100.00
2022-08-10T03:30:59.671Z,100.00
2022-08-10T03:33:33.496Z,100.00
2022-08-10T03:36:42.643Z,100.00
2022-08-10T03:38:53.902Z,100.00
2022-08-10T03:41:47.785Z,100.00
2022-08-10T03:44:26.227Z,100.00
2022-08-10T03:46:56.047Z,100.00
2022-08-10T03:49:26.724Z,100.00
2022-08-10T03:51:56.014Z,100.00
2022-08-10T03:54:28.037Z,100.00
2022-08-10T03:56:56.517Z,100.00
2022-08-10T03:59:25.148Z,100.00
2022-08-10T04:02:44.495Z,100.00
2022-08-10T04:04:43.198Z,100.00
2022-08-10T04:07:12.135Z,100.00
2022-08-10T04:09:53.542Z,100.00
2022-08-10T04:12:24.640Z,100.00
2022-08-10T04:14:53.672Z,100.00
2022-08-10T04:18:02.763Z,100.00
2022-08-10T04:20:46.588Z,100.00
2022-08-10T04:23:23.571Z,100.00
2022-08-10T04:25:53.273Z,100.00
2022-08-10T04:28:22.322Z,100.00
2022-08-10T04:30:52.726Z,100.00
2022-08-10T04:33:23.895Z,100.00
2022-08-10T04:35:53.502Z,100.00
2022-08-10T04:38:23.774Z,100.00
2022-08-10T04:40:52.754Z,100.00
2022-08-10T04:43:21.444Z,100.00
2022-08-10T04:45:51.895Z,100.00
2022-08-10T04:48:42.119Z,100.00
2022-08-10T04:51:17.609Z,100.00
2022-08-10T04:54:02.903Z,100.00
2022-08-10T04:56:37.986Z,100.00
2022-08-10T04:59:11.673Z,100.00
2022-08-10T05:02:21.986Z,100.00
2022-08-10T05:04:35.055Z,100.00
2022-08-10T05:07:09.802Z,100.00
2022-08-10T05:10:03.908Z,100.00
2022-08-10T05:12:29.634Z,100.00
2022-08-10T05:14:58.013Z,100.00
2022-08-10T05:17:26.259Z,100.00
2022-08-10T05:20:02.891Z,100.00
2022-08-10T05:22:35.904Z,100.00
2022-08-10T05:25:06.834Z,100.00
2022-08-10T05:27:35.578Z,100.00
2022-08-10T05:30:06.036Z,100.00
2022-08-10T05:32:56.411Z,100.00
2022-08-10T05:35:24.570Z,100.00
2022-08-10T05:38:12.373Z,100.00
2022-08-10T05:40:47.105Z,100.00
2022-08-10T05:43:18.489Z,100.00
2022-08-10T05:46:19.999Z,100.00
2022-08-10T05:48:54.255Z,100.00
2022-08-10T05:51:28.611Z,100.00
2022-08-10T05:54:02.618Z,100.00
2022-08-10T05:56:55.512Z,100.00
2022-08-10T06:00:30.970Z,100.00
2022-08-10T06:02:49.349Z,100.00
2022-08-10T06:05:21.615Z,100.00
2022-08-10T06:07:59.510Z,100.00
2022-08-10T06:10:35.623Z,100.00
2022-08-10T06:13:30.087Z,100.00
2022-08-10T06:16:12.414Z,100.00
2022-08-10T06:18:42.391Z,100.00
2022-08-10T06:21:12.398Z,100.00
2022-08-10T06:23:42.797Z,100.00
2022-08-10T06:26:14.915Z,100.00
2022-08-10T06:29:02.117Z,100.00
2022-08-10T06:31:48.952Z,100.00
2022-08-10T06:34:32.998Z,100.00
2022-08-10T06:37:06.438Z,100.00
2022-08-10T06:39:36.647Z,100.00
2022-08-10T06:42:17.678Z,100.00
2022-08-10T06:45:01.715Z,100.00
2022-08-10T06:48:04.747Z,100.00
2022-08-10T06:50:59.125Z,100.00
2022-08-10T06:53:54.055Z,100.00
2022-08-10T06:56:38.046Z,100.00
2022-08-10T06:59:37.762Z,100.00
2022-08-10T07:02:16.097Z,100.00
2022-08-10T07:04:55.228Z,100.00
2022-08-10T07:07:28.687Z,100.00
2022-08-10T07:09:59.126Z,100.00
2022-08-10T07:12:30.401Z,100.00
2022-08-10T07:15:00.802Z,100.00
2022-08-10T07:17:34.863Z,100.00
2022-08-10T07:20:12.290Z,100.00
2022-08-10T07:23:54.584Z,100.00
2022-08-10T07:25:33.223Z,100.00
2022-08-10T07:28:03.273Z,99.92
2022-08-10T07:30:36.374Z,99.74
2022-08-10T07:33:06.428Z,99.94
2022-08-10T07:35:42.120Z,100.00
2022-08-10T07:38:18.938Z,100.00
2022-08-10T07:40:49.850Z,100.00
2022-08-10T07:43:23.070Z,100.00
2022-08-10T07:45:52.121Z,100.00
2022-08-10T07:48:25.820Z,100.00
2022-08-10T07:51:00.384Z,100.00
2022-08-10T07:53:33.991Z,100.00
2022-08-10T07:56:20.890Z,100.00
2022-08-10T07:59:10.228Z,100.00
2022-08-10T08:01:48.566Z,100.00
2022-08-10T08:04:19.774Z,100.00
2022-08-10T08:06:49.227Z,100.00
2022-08-10T08:09:20.729Z,100.00
2022-08-10T08:11:52.594Z,100.00
2022-08-10T08:14:22.514Z,100.00
2022-08-10T08:16:54.004Z,100.00
2022-08-10T08:19:26.942Z,100.00
2022-08-10T08:24:07.234Z,100.00
2022-08-10T08:24:47.512Z,100.00
2022-08-10T08:27:20.026Z,100.00
2022-08-10T08:29:50.954Z,100.00
2022-08-10T08:32:26.500Z,99.28
2022-08-10T08:34:59.059Z,99.62
2022-08-10T08:38:32.977Z,99.71
2022-08-10T08:40:33.842Z,97.88
2022-08-10T08:43:21.359Z,97.90
2022-08-10T08:46:08.651Z,97.29
2022-08-10T08:50:05.092Z,96.24
2022-08-10T08:52:18.124Z,95.09
2022-08-10T08:56:03.262Z,96.01
2022-08-10T08:58:26.679Z,96.85
2022-08-10T09:01:18.792Z,94.50
2022-08-10T09:04:21.216Z,94.99
2022-08-10T09:07:59.004Z,94.94
2022-08-10T09:10:43.022Z,94.56
2022-08-10T09:13:34.074Z,94.48
2022-08-10T09:16:28.135Z,94.22
2022-08-10T09:19:09.807Z,92.99
2022-08-10T09:22:17.055Z,93.52
2022-08-10T09:25:22.363Z,93.13
2022-08-10T09:28:01.017Z,91.77
2022-08-10T09:31:18.799Z,92.66
2022-08-10T09:36:22.447Z,93.27
2022-08-10T09:37:39.330Z,92.90
2022-08-10T09:40:59.596Z,93.49
2022-08-10T09:43:41.188Z,93.75
2022-08-10T09:46:40.398Z,93.97
2022-08-10T09:49:22.491Z,93.98
2022-08-10T09:52:29.772Z,94.21
2022-08-10T09:55:13.751Z,94.98
2022-08-10T09:58:01.962Z,96.12
2022-08-10T10:00:38.922Z,96.89
2022-08-10T10:03:26.109Z,97.10
2022-08-10T10:06:12.679Z,96.23
2022-08-10T10:09:10.107Z,95.61
2022-08-10T10:12:09.730Z,95.08
2022-08-10T10:15:24.001Z,92.92
2022-08-10T10:18:03.161Z,91.31
2022-08-10T10:20:55.015Z,91.47
2022-08-10T10:24:22.341Z,89.65
2022-08-10T10:27:06.640Z,88.74
2022-08-10T10:30:15.867Z,88.29
2022-08-10T10:33:25.829Z,88.55
2022-08-10T10:35:56.039Z,86.06
2022-08-10T10:38:34.645Z,83.41
2022-08-10T10:41:08.076Z,84.06
2022-08-10T10:43:40.945Z,85.04
2022-08-10T10:46:39.863Z,81.79
2022-08-10T10:49:43.178Z,80.59
2022-08-10T10:52:39.473Z,79.44
2022-08-10T10:55:20.061Z,78.00
2022-08-10T10:58:07.917Z,76.37
2022-08-10T11:01:04.278Z,75.93
2022-08-10T11:04:07.272Z,75.04
2022-08-10T11:06:48.542Z,74.11
2022-08-10T11:10:05.278Z,73.70
2022-08-10T11:12:32.119Z,74.08
2022-08-10T11:15:21.360Z,68.37
2022-08-10T11:17:56.707Z,65.80
2022-08-10T11:20:37.220Z,64.18
2022-08-10T11:23:25.386Z,64.68
2022-08-10T11:26:10.817Z,63.82
2022-08-10T11:29:03.751Z,66.34
2022-08-10T11:31:51.402Z,65.84
2022-08-10T11:34:48.272Z,65.33
2022-08-10T11:38:33.006Z,65.16
2022-08-10T11:40:32.259Z,64.87
2022-08-10T11:43:21.178Z,65.66
2022-08-10T11:46:46.942Z,63.61
2022-08-10T11:49:31.481Z,63.47
2022-08-10T11:52:35.008Z,62.51
2022-08-10T11:55:12.505Z,62.56
2022-08-10T11:57:53.774Z,62.04
2022-08-10T12:00:29.477Z,62.40
2022-08-10T12:03:05.865Z,60.99
2022-08-10T12:05:52.574Z,60.60
2022-08-10T12:10:02.626Z,60.96
2022-08-10T12:11:27.050Z,61.55
2022-08-10T12:14:32.354Z,60.91
2022-08-10T12:17:14.038Z,65.75
2022-08-10T12:20:01.167Z,68.15
2022-08-10T12:22:38.979Z,70.33
2022-08-10T12:25:18.176Z,70.80
2022-08-10T12:28:17.921Z,70.75
2022-08-10T12:30:52.255Z,71.00
2022-08-10T12:33:26.635Z,71.52
2022-08-10T12:36:17.907Z,70.15
2022-08-10T12:39:02.221Z,71.54
2022-08-10T12:41:44.050Z,72.03
2022-08-10T12:44:50.662Z,71.73
2022-08-10T12:47:37.011Z,71.88
2022-08-10T12:50:32.966Z,72.08
2022-08-10T12:53:15.347Z,69.36
2022-08-10T12:55:44.592Z,67.68
2022-08-10T12:58:57.115Z,68.65
2022-08-10T13:01:16.061Z,67.38
2022-08-10T13:04:23.828Z,65.76
2022-08-10T13:06:46.825Z,66.63
2022-08-10T13:09:23.301Z,67.31
2022-08-10T13:12:35.847Z,67.23
2022-08-10T13:15:04.352Z,66.99
2022-08-10T13:17:56.339Z,62.20
2022-08-10T13:20:28.024Z,60.54
2022-08-10T13:22:59.598Z,60.15
2022-08-10T13:25:37.833Z,60.65
2022-08-10T13:28:36.908Z,61.50
2022-08-10T13:31:08.452Z,59.87
2022-08-10T13:34:38.767Z,59.16
2022-08-10T13:36:39.077Z,59.87
2022-08-10T13:39:08.740Z,58.86
2022-08-10T13:41:45.640Z,58.32
2022-08-10T13:44:20.395Z,57.89
2022-08-10T13:46:52.608Z,56.35
2022-08-10T13:49:24.284Z,55.63
2022-08-10T13:51:57.921Z,55.41
2022-08-10T13:54:37.230Z,55.08
2022-08-10T13:57:07.082Z,55.04
2022-08-10T14:00:34.325Z,55.55
2022-08-10T14:02:34.780Z,55.23
2022-08-10T14:05:05.178Z,55.24
2022-08-10T14:07:38.710Z,55.52
2022-08-10T14:11:01.290Z,56.29
2022-08-10T14:13:12.757Z,57.01
2022-08-10T14:15:45.645Z,56.10
2022-08-10T14:18:16.210Z,55.93
2022-08-10T14:20:46.202Z,55.65
2022-08-10T14:23:15.593Z,56.13
2022-08-10T14:25:52.218Z,55.97
2022-08-10T14:28:26.536Z,56.42
2022-08-10T14:31:21.592Z,56.53
2022-08-10T14:33:56.902Z,54.10
2022-08-10T14:36:59.606Z,54.16
2022-08-10T14:40:01.891Z,53.23
2022-08-10T14:42:38.261Z,53.40
2022-08-10T14:45:13.598Z,53.79
2022-08-10T14:47:52.653Z,54.21
2022-08-10T14:50:32.288Z,54.41
2022-08-10T14:53:15.246Z,55.04
2022-08-10T14:55:57.694Z,55.29
2022-08-10T14:58:35.727Z,54.73
2022-08-10T15:01:08.663Z,55.26
2022-08-10T15:03:58.537Z,55.24
2022-08-10T15:07:03.203Z,55.97
2022-08-10T15:09:37.333Z,56.87
2022-08-10T15:12:27.547Z,56.43
2022-08-10T15:15:00.844Z,56.72
2022-08-10T15:17:35.000Z,56.96
2022-08-10T15:20:15.129Z,56.48
2022-08-10T15:23:31.003Z,57.07
2022-08-10T15:26:10.783Z,56.83
2022-08-10T15:29:23.062Z,56.44
2022-08-10T15:31:57.833Z,55.23
2022-08-10T15:34:47.573Z,54.27
2022-08-10T15:37:47.232Z,54.06
2022-08-10T15:40:25.089Z,53.58
2022-08-10T15:43:20.220Z,54.56
2022-08-10T15:46:15.593Z,54.38
2022-08-10T15:48:48.812Z,54.38
2022-08-10T15:51:53.742Z,54.03
2022-08-10T15:54:33.589Z,54.01
2022-08-10T15:57:09.279Z,52.99
2022-08-10T15:59:47.581Z,52.42
2022-08-10T16:02:27.784Z,52.32
2022-08-10T16:06:01.106Z,52.87
2022-08-10T16:08:15.110Z,53.45
2022-08-10T16:10:56.774Z,53.80
2022-08-10T16:13:50.419Z,53.87
2022-08-10T16:16:21.290Z,54.06
2022-08-10T16:18:52.458Z,53.33
2022-08-10T16:21:22.764Z,52.62
2022-08-10T16:24:14.337Z,52.32
2022-08-10T16:26:50.850Z,52.88
2022-08-10T16:29:25.040Z,51.82
2022-08-10T16:32:00.241Z,51.96
2022-08-10T16:34:30.979Z,52.06
2022-08-10T16:37:08.218Z,52.37
2022-08-10T16:39:58.530Z,52.58
2022-08-10T16:42:33.084Z,52.52
2022-08-10T16:45:03.602Z,52.30
2022-08-10T16:47:36.456Z,52.68
2022-08-10T16:50:09.619Z,52.99
2022-08-10T16:52:39.599Z,52.64
2022-08-10T16:55:24.242Z,52.92
2022-08-10T16:58:05.221Z,53.20
2022-08-10T17:00:34.598Z,53.25
2022-08-10T17:04:05.355Z,53.69
2022-08-10T17:06:09.905Z,53.93
2022-08-10T17:08:48.017Z,53.83
2022-08-10T17:11:21.178Z,54.28
2022-08-10T17:13:50.025Z,54.17
2022-08-10T17:16:18.348Z,54.77
2022-08-10T17:18:48.528Z,55.00
2022-08-10T17:21:22.556Z,55.37
2022-08-10T17:23:55.244Z,55.45
2022-08-10T17:26:37.018Z,55.64
2022-08-10T17:29:17.493Z,56.18
2022-08-10T17:32:30.700Z,56.30
2022-08-10T17:35:06.836Z,56.31
2022-08-10T17:38:00.840Z,56.41
2022-08-10T17:40:33.156Z,56.35
2022-08-10T17:43:03.497Z,56.53
2022-08-10T17:45:47.485Z,56.71
2022-08-10T17:48:22.161Z,56.87
2022-08-10T17:50:59.314Z,57.22
2022-08-10T17:53:44.892Z,56.66
2022-08-10T17:56:20.800Z,56.62
2022-08-10T17:58:53.863Z,56.98
2022-08-10T18:01:40.685Z,57.32
2022-08-10T18:04:19.387Z,57.73
2022-08-10T18:06:57.047Z,58.16
2022-08-10T18:09:32.899Z,58.19
2022-08-10T18:12:10.341Z,58.59
2022-08-10T18:14:49.836Z,59.00
2022-08-10T18:17:26.542Z,59.17
2022-08-10T18:20:00.366Z,59.27
2022-08-10T18:22:29.499Z,59.76
2022-08-10T18:25:00.057Z,60.57
2022-08-10T18:28:01.125Z,61.23
2022-08-10T18:30:19.891Z,61.31
2022-08-10T18:32:53.838Z,61.36
2022-08-10T18:35:34.898Z,61.01
2022-08-10T18:38:07.055Z,61.28
2022-08-10T18:40:40.311Z,61.18
2022-08-10T18:44:06.857Z,61.58
2022-08-10T18:46:01.440Z,61.72
2022-08-10T18:48:49.032Z,61.98
2022-08-10T18:51:24.951Z,62.58
2022-08-10T18:54:06.684Z,62.64
2022-08-10T18:56:58.068Z,62.86
2022-08-10T18:59:38.263Z,63.08
2022-08-10T19:02:18.447Z,63.89
2022-08-10T19:05:30.942Z,64.27
2022-08-10T19:08:09.742Z,64.02
2022-08-10T19:10:48.875Z,64.08
2022-08-10T19:13:37.099Z,64.46
2022-08-10T19:16:35.714Z,64.48
2022-08-10T19:19:21.939Z,64.71
2022-08-10T19:21:53.918Z,65.63
2022-08-10T19:24:48.858Z,65.98
2022-08-10T19:28:06.788Z,65.94
2022-08-10T19:30:59.120Z,66.26
2022-08-10T19:34:11.810Z,67.00
2022-08-10T19:37:07.184Z,67.43
2022-08-10T19:39:50.609Z,67.35
2022-08-10T19:42:30.960Z,67.37
2022-08-10T19:45:56.003Z,67.80
2022-08-10T19:48:26.658Z,67.79
2022-08-10T19:51:16.421Z,67.88
2022-08-10T19:54:09.774Z,68.20
2022-08-10T19:56:59.112Z,68.32
2022-08-10T20:00:15.099Z,69.06
2022-08-10T20:02:26.868Z,69.39
2022-08-10T20:05:16.070Z,69.72
2022-08-10T20:08:00.379Z,69.73
2022-08-10T20:11:09.903Z,69.93
2022-08-10T20:14:21.659Z,70.10
2022-08-10T20:16:56.230Z,70.25
2022-08-10T20:19:53.643Z,70.27
2022-08-10T20:22:39.874Z,70.13
2022-08-10T20:25:14.039Z,70.22
2022-08-10T20:28:32.496Z,70.59
2022-08-10T20:31:22.949Z,72.62
2022-08-10T20:34:07.475Z,73.66
2022-08-10T20:37:05.576Z,74.46
2022-08-10T20:40:04.358Z,74.50
2022-08-10T20:42:46.531Z,74.71
2022-08-10T20:45:41.530Z,75.24
2022-08-10T20:48:26.255Z,75.26
2022-08-10T20:51:00.931Z,74.90
2022-08-10T20:53:41.434Z,75.64
2022-08-10T20:56:27.773Z,75.40
2022-08-10T20:59:24.279Z,75.11
2022-08-10T21:02:12.195Z,75.75
2022-08-10T21:05:05.745Z,76.32
2022-08-10T21:08:02.350Z,75.67
2022-08-10T21:11:26.992Z,76.21
2022-08-10T21:14:32.583Z,77.08
2022-08-10T21:17:48.957Z,78.67
2022-08-10T21:20:28.833Z,80.47
2022-08-10T21:23:05.940Z,81.22
2022-08-10T21:25:49.233Z,80.61
2022-08-10T21:28:38.879Z,80.15
2022-08-10T21:31:32.314Z,80.49
2022-08-10T21:34:20.070Z,81.74
2022-08-10T21:37:40.062Z,81.97
2022-08-10T21:40:43.344Z,83.14
2022-08-10T21:44:21.359Z,85.09
2022-08-10T21:48:07.118Z,84.39
2022-08-10T21:51:06.015Z,85.74
2022-08-10T21:54:22.506Z,84.92
2022-08-10T21:57:25.740Z,84.56
2022-08-10T22:00:29.727Z,87.61
2022-08-10T22:03:19.720Z,87.31
2022-08-10T22:06:10.371Z,88.15
2022-08-10T22:09:04.988Z,89.74
2022-08-10T22:11:56.070Z,89.93
2022-08-10T22:14:54.498Z,89.34
2022-08-10T22:18:04.049Z,91.47
2022-08-10T22:20:55.239Z,89.74
2022-08-10T22:24:06.751Z,89.06
2022-08-10T22:27:56.596Z,90.55
2022-08-10T22:30:36.006Z,92.39
2022-08-10T22:33:48.959Z,92.22
2022-08-10T22:36:41.483Z,92.95
2022-08-10T22:40:09.991Z,92.71
2022-08-10T22:42:59.065Z,92.40
2022-08-10T22:45:56.639Z,93.48
2022-08-10T22:48:43.515Z,93.08
2022-08-10T22:51:20.647Z,93.78
2022-08-10T22:54:30.562Z,92.64
2022-08-10T22:57:22.422Z,93.07
2022-08-10T22:59:53.261Z,92.23
2022-08-10T23:02:34.009Z,92.10
2022-08-10T23:05:14.928Z,92.75
2022-08-10T23:07:51.544Z,92.28
2022-08-10T23:10:24.662Z,92.19
2022-08-10T23:13:35.543Z,91.86
2022-08-10T23:16:36.374Z,93.40
2022-08-10T23:19:18.765Z,93.07
2022-08-10T23:22:28.700Z,92.48
2022-08-10T23:25:09.682Z,92.51
2022-08-10T23:27:42.309Z,92.63
2022-08-10T23:30:17.480Z,93.27
2022-08-10T23:32:51.501Z,93.82
2022-08-10T23:36:31.445Z,94.49
2022-08-10T23:38:14.412Z,94.79
2022-08-10T23:40:49.451Z,95.60
2022-08-10T23:43:36.105Z,95.73
2022-08-10T23:46:15.644Z,96.36
2022-08-10T23:48:45.908Z,96.05
2022-08-10T23:51:17.516Z,96.48
2022-08-10T23:53:48.702Z,96.63
2022-08-10T23:56:21.122Z,96.01
2022-08-10T23:58:54.142Z,96.22
